Weather at Samsung Convention Hill Apartments Heliports

Public forecast

Using degrees Celsius for public forecast. Weather courtesy of forecast.io.

Closest aviation weather report (METAR) to Samsung Convention Hill Apartments Heliports

Closest report is Gimhae International Airport, 6.8 nm (12.7 km) WNW. Retrieved 2020/09/23 11:00 UTC (29 minutes ago):

RKPK 231100Z 01011KT 9999 SCT030 BKN060 BKN180 21/14 Q1016

Closest aviation forecast (TAF) to Samsung Convention Hill Apartments Heliports

Closest forecast is Gimhae International Airport, 6.8 nm (12.7 km) WNW. Retrieved 2020/09/23 06:00 UTC (5 hours ago):

TAF RKPK 230500Z 2306/2412 36010G20KT 9999 BKN030 BKN200 TX25/2306Z TN17/2321Z BECMG 2314/2315 36010KT